Weather at Los Angeles International Airport

Public forecast

Using degrees Fahrenheit for public forecast. Weather courtesy of forecast.io.

Current aviation weather report (METAR) for Los Angeles International Airport

Retrieved 2021/01/23 11:53 UTC (53 minutes ago):

KLAX 231153Z 07003KT 10SM SCT024 BKN036 BKN055 09/07 A2992 RMK AO2 RAB31E43 SLP131 P0000 60000 T00940067 10122 20094 58010

Aviation forecast (TAF) for Los Angeles International Airport

Retrieved 2021/01/23 12:00 UTC (46 minutes ago):

TAF KLAX 231157Z 2312/2418 VRB03KT P6SM VCSH BKN035 FM231500 07006KT P6SM VCSH BKN035 FM232100 25010KT P6SM VCSH BKN040 FM240300 VRB03KT P6SM SCT040 SCT200 FM240900 34006KT P6SM SCT040 SCT200 FM241500 VRB03KT P6SM SCT200